Time;durP1;ratioP1;P1;durP2;ratioP2;P2;SDS_P1;SDS_P2;PMS_P1;PMS_P2;Temp;Humidity;BMP_temperature;BMP_pressure;BME280_temperature;BME280_humidity;BME280_pressure;Samples;Min_cycle;Max_cycle;Signal;HPM_P1;HPM_P2
2022/05/29 00:01:12;;;;;;;0.82;0.70;;;16.80;69.70;;;;;;4136281;28;20178;-38
2022/05/29 00:03:15;;;;;;;1.05;0.50;;;16.80;69.70;;;;;;4128382;28;20049;-40
2022/05/29 00:05:17;;;;;;;0.50;0.50;;;16.80;69.60;;;;;;4132065;28;20061;-37
2022/05/29 00:07:20;;;;;;;0.90;0.57;;;16.80;69.60;;;;;;4139258;28;20053;-39
2022/05/29 00:09:49;;;;;;;0.80;0.80;;;16.80;69.60;;;;;;4139980;28;20792;-38
2022/05/29 00:11:54;;;;;;;2.90;0.80;;;16.80;69.50;;;;;;4120494;28;20458;-38
2022/05/29 00:14:00;;;;;;;1.08;0.70;;;16.80;69.50;;;;;;4136566;28;20553;-40
2022/05/29 00:16:02;;;;;;;3.95;0.80;;;16.80;69.50;;;;;;4128785;28;21475;-37
2022/05/29 00:18:05;;;;;;;15.27;2.38;;;16.80;69.90;;;;;;4126378;28;20082;-37
2022/05/29 00:20:08;;;;;;;6.70;1.17;;;16.80;69.90;;;;;;4131982;28;20075;-38
2022/05/29 00:22:17;;;;;;;9.95;1.58;;;16.80;69.50;;;;;;4131633;28;20588;-37
2022/05/29 00:24:20;;;;;;;5.07;1.10;;;16.80;69.50;;;;;;4127309;28;21190;-37
2022/05/29 00:26:22;;;;;;;5.28;1.52;;;16.90;69.50;;;;;;4126667;28;20661;-41
2022/05/29 00:28:24;;;;;;;5.03;1.20;;;16.90;69.60;;;;;;4130408;28;21063;-38
2022/05/29 00:30:26;;;;;;;4.25;0.88;;;16.80;69.60;;;;;;4137673;28;20052;-38
2022/05/29 00:32:29;;;;;;;5.07;1.13;;;16.90;69.60;;;;;;4130050;28;21263;-38
2022/05/29 00:34:31;;;;;;;3.10;0.70;;;16.90;69.60;;;;;;4131928;28;20056;-40
2022/05/29 00:36:37;;;;;;;4.18;0.85;;;16.90;69.60;;;;;;4139978;28;20052;-39
2022/05/29 00:38:42;;;;;;;5.00;0.98;;;16.90;69.50;;;;;;4136352;28;20053;-39
2022/05/29 00:40:49;;;;;;;3.80;0.98;;;16.90;69.40;;;;;;4129357;28;20049;-38
2022/05/29 00:42:51;;;;;;;0.82;0.60;;;16.90;69.40;;;;;;4132633;28;20071;-39
2022/05/29 00:44:53;;;;;;;1.35;0.50;;;16.90;69.40;;;;;;4137396;28;20553;-40
2022/05/29 00:47:23;;;;;;;3.67;0.55;;;16.90;69.40;;;;;;4134747;28;21496;-38
2022/05/29 00:49:31;;;;;;;0.82;0.70;;;16.90;69.30;;;;;;4132916;28;20129;-38
2022/05/29 00:52:02;;;;;;;2.67;0.60;;;16.90;69.30;;;;;;4151760;28;20327;-40
2022/05/29 00:54:06;;;;;;;1.15;0.50;;;16.90;69.20;;;;;;4123982;28;20231;-38
2022/05/29 00:56:11;;;;;;;0.40;0.40;;;16.90;69.10;;;;;;4146755;28;20056;-41
2022/05/29 00:58:13;;;;;;;1.27;0.50;;;16.80;69.70;;;;;;4147464;28;20563;-38
2022/05/29 01:00:22;;;;;;;0.50;0.50;;;16.80;69.10;;;;;;4155333;28;20092;-38
2022/05/29 01:02:24;;;;;;;0.75;0.55;;;16.80;69.10;;;;;;4156338;28;20056;-43
2022/05/29 01:04:27;;;;;;;0.43;0.43;;;16.80;69.00;;;;;;4148409;28;20064;-38
2022/05/29 01:06:29;;;;;;;1.00;0.47;;;16.80;68.90;;;;;;4146722;28;20426;-39
2022/05/29 01:08:35;;;;;;;2.80;0.88;;;16.80;68.90;;;;;;4158925;28;20068;-37
2022/05/29 01:11:11;;;;;;;8.07;1.15;;;16.80;69.40;;;;;;4155204;28;20056;-39
2022/05/29 01:13:26;;;;;;;2.08;0.55;;;16.90;69.60;;;;;;4145480;28;20056;-41
2022/05/29 01:16:09;;;;;;;1.77;0.60;;;16.90;68.80;;;;;;4165877;28;20051;-43
2022/05/29 01:18:35;;;;;;;4.18;1.00;;;16.90;68.20;;;;;;4148799;28;20048;-39
2022/05/29 01:20:56;;;;;;;3.15;0.77;;;16.90;67.40;;;;;;4157274;28;20071;-38
2022/05/29 01:23:19;;;;;;;12.25;0.95;;;16.90;67.60;;;;;;4141461;28;20061;-39
2022/05/29 01:25:42;;;;;;;1.15;0.70;;;16.90;67.80;;;;;;4138241;28;20064;-42
2022/05/29 01:28:08;;;;;;;2.28;0.75;;;16.90;68.00;;;;;;4152740;28;20052;-41
2022/05/29 01:30:26;;;;;;;9.00;0.80;;;16.90;68.50;;;;;;4145188;28;20064;-39
2022/05/29 01:32:41;;;;;;;7.57;1.08;;;16.90;68.60;;;;;;4146603;28;20075;-42
2022/05/29 01:34:55;;;;;;;7.85;1.67;;;16.90;68.70;;;;;;4147913;28;20088;-38
2022/05/29 01:37:15;;;;;;;;;;;16.90;68.90;;;;;;4147653;28;20453;-43
2022/05/29 01:39:26;;;;;;;5.25;1.48;;;17.00;69.00;;;;;;4151136;28;19928;-40
2022/05/29 01:41:42;;;;;;;5.88;1.42;;;17.00;68.90;;;;;;4151239;28;20053;-39
2022/05/29 01:44:08;;;;;;;2.92;1.02;;;17.00;69.00;;;;;;4151674;28;20056;-39
2022/05/29 01:46:25;;;;;;;9.30;1.63;;;17.00;68.80;;;;;;4144070;28;20081;-39
2022/05/29 01:48:38;;;;;;;11.02;1.50;;;17.00;69.00;;;;;;4145849;28;20048;-39
2022/05/29 01:50:53;;;;;;;3.50;1.15;;;17.00;69.20;;;;;;4144707;28;21149;-42
2022/05/29 01:53:01;;;;;;;18.27;1.92;;;17.00;69.20;;;;;;4145775;28;20514;-40
2022/05/29 01:55:13;;;;;;;11.73;2.20;;;17.00;69.60;;;;;;4144670;28;20044;-37
2022/05/29 01:57:19;;;;;;;5.97;1.90;;;17.00;69.50;;;;;;4144789;28;20044;-38
2022/05/29 01:59:47;;;;;;;7.05;1.40;;;17.00;69.40;;;;;;4148012;28;20051;-39
2022/05/29 02:02:13;;;;;;;9.38;1.90;;;17.00;69.30;;;;;;4131960;28;21339;-37
2022/05/29 02:04:22;;;;;;;8.45;2.03;;;17.30;69.90;;;;;;4145545;28;20052;-36
2022/05/29 02:09:09;;;;;;;11.13;2.13;;;18.80;65.60;;;;;;4148994;28;21136;-40
2022/05/29 02:11:31;;;;;;;10.73;2.20;;;19.50;63.70;;;;;;4150255;28;20049;-38
2022/05/29 02:13:47;;;;;;;5.20;1.70;;;20.20;62.20;;;;;;4152824;28;20044;-37
2022/05/29 02:16:12;;;;;;;2.95;1.58;;;20.70;60.80;;;;;;4145018;28;20634;-39
2022/05/29 02:18:39;;;;;;;5.78;1.80;;;21.20;60.00;;;;;;4145155;28;20059;-38
2022/05/29 02:20:45;;;;;;;6.72;1.60;;;21.50;58.90;;;;;;4152934;28;20499;-38
2022/05/29 02:22:51;;;;;;;5.30;1.92;;;22.00;58.00;;;;;;4166046;28;20048;-40
2022/05/29 02:25:00;;;;;;;5.00;1.40;;;22.30;57.30;;;;;;4141411;28;20060;-38
2022/05/29 02:27:10;;;;;;;4.30;1.42;;;22.60;56.60;;;;;;4140576;28;20109;-44
2022/05/29 02:29:13;;;;;;;3.15;1.27;;;23.00;56.00;;;;;;4142429;28;20057;-39
2022/05/29 02:31:50;;;;;;;6.15;2.13;;;23.20;55.40;;;;;;4141382;28;20058;-37
2022/05/29 02:34:08;;;;;;;3.88;1.50;;;23.50;55.00;;;;;;4152853;28;20055;-37
2022/05/29 02:36:39;;;;;;;2.60;1.63;;;23.80;54.20;;;;;;4147743;28;20066;-38
2022/05/29 02:39:01;;;;;;;3.28;1.48;;;24.10;53.80;;;;;;4147210;28;21689;-46
2022/05/29 02:41:23;;;;;;;4.20;1.77;;;24.40;53.40;;;;;;4152492;28;20162;-42
2022/05/29 02:43:32;;;;;;;7.78;1.98;;;24.60;53.00;;;;;;4144277;28;20147;-44
2022/05/29 02:45:57;;;;;;;5.35;2.38;;;24.80;52.90;;;;;;4144506;28;20060;-41
2022/05/29 02:48:08;;;;;;;13.85;2.58;;;24.50;53.50;;;;;;4142666;28;20052;-44
2022/05/29 02:50:28;;;;;;;6.75;3.35;;;24.10;53.00;;;;;;4140601;28;20102;-45
2022/05/29 02:52:31;;;;;;;7.38;2.72;;;23.70;55.40;;;;;;4149101;28;20057;-39
2022/05/29 02:54:33;;;;;;;6.25;2.90;;;23.40;55.70;;;;;;4146700;28;20048;-43
2022/05/29 02:56:35;;;;;;;7.13;2.13;;;23.20;56.20;;;;;;4147944;28;20090;-43
2022/05/29 02:58:41;;;;;;;7.43;2.28;;;22.90;56.50;;;;;;4153872;28;20591;-43
2022/05/29 03:01:00;;;;;;;4.32;2.33;;;22.80;56.80;;;;;;4147719;28;20792;-39
2022/05/29 03:03:31;;;;;;;4.85;2.00;;;22.60;53.70;;;;;;4152625;28;20052;-41
2022/05/29 03:05:56;;;;;;;3.00;2.05;;;22.30;52.70;;;;;;4144976;28;20149;-39
2022/05/29 03:08:20;;;;;;;4.53;1.83;;;22.10;53.00;;;;;;4152089;28;20138;-45
2022/05/29 03:10:22;;;;;;;4.40;2.13;;;21.90;53.10;;;;;;4148358;28;20122;-43
2022/05/29 03:12:52;;;;;;;3.25;1.90;;;21.70;53.60;;;;;;4151312;28;20051;-44
2022/05/29 03:15:20;;;;;;;1.75;1.30;;;21.60;54.10;;;;;;4146070;28;20147;-41
2022/05/29 03:17:45;;;;;;;3.25;1.45;;;21.40;54.60;;;;;;4151092;28;20120;-37
2022/05/29 03:20:13;;;;;;;2.13;1.40;;;21.30;54.50;;;;;;4143245;28;20048;-39
2022/05/29 03:22:24;;;;;;;3.22;1.52;;;21.20;55.80;;;;;;4152331;28;20703;-39
2022/05/29 03:24:30;;;;;;;1.08;0.80;;;21.10;55.90;;;;;;4148349;28;21380;-40
2022/05/29 03:26:48;;;;;;;1.38;1.00;;;21.10;56.30;;;;;;4142868;28;20055;-38
2022/05/29 03:29:02;;;;;;;2.53;1.10;;;21.00;56.70;;;;;;4149474;28;20451;-39
2022/05/29 03:31:10;;;;;;;1.27;0.77;;;21.00;57.00;;;;;;4150247;28;20053;-40
2022/05/29 03:33:15;;;;;;;2.72;1.35;;;21.00;57.20;;;;;;4149570;28;20732;-38
2022/05/29 03:35:32;;;;;;;3.83;1.30;;;21.00;56.70;;;;;;4147086;28;20354;-42
2022/05/29 03:37:36;;;;;;;4.43;1.40;;;21.00;56.60;;;;;;4147358;28;20838;-38
2022/05/29 03:39:38;;;;;;;2.53;1.42;;;20.90;57.10;;;;;;4144701;28;20486;-39
2022/05/29 03:41:52;;;;;;;2.78;1.35;;;20.90;57.00;;;;;;4151924;28;20551;-39
2022/05/29 03:43:54;;;;;;;7.75;1.83;;;20.90;57.30;;;;;;4147497;28;20989;-39
2022/05/29 03:45:56;;;;;;;6.38;1.60;;;20.90;57.50;;;;;;4150950;28;20902;-44
2022/05/29 03:47:58;;;;;;;3.88;1.70;;;20.80;57.50;;;;;;4145326;28;20067;-41
2022/05/29 03:50:00;;;;;;;7.07;2.20;;;20.80;57.60;;;;;;4144217;28;20067;-45
2022/05/29 03:52:03;;;;;;;4.70;2.08;;;20.90;57.90;;;;;;4151947;28;20454;-38
2022/05/29 03:54:06;;;;;;;4.85;1.98;;;20.80;57.90;;;;;;4144231;28;20047;-43
2022/05/29 03:56:08;;;;;;;6.93;2.45;;;20.80;58.00;;;;;;4145235;28;20426;-38
2022/05/29 03:58:10;;;;;;;7.70;2.13;;;20.90;58.00;;;;;;4152065;28;20060;-38
2022/05/29 04:00:13;;;;;;;7.88;2.42;;;20.90;58.10;;;;;;4145991;28;20398;-44
2022/05/29 04:02:15;;;;;;;7.18;2.05;;;20.90;58.30;;;;;;4143233;28;20045;-46
2022/05/29 04:04:17;;;;;;;14.02;2.58;;;20.90;58.30;;;;;;4147547;28;20094;-40
2022/05/29 04:06:20;;;;;;;7.43;2.45;;;20.90;58.30;;;;;;4154918;28;20487;-39
2022/05/29 04:13:04;;;;;;;7.35;2.35;;;20.90;58.60;;;;;;4153183;28;20377;-40
2022/05/29 04:15:07;;;;;;;5.55;1.95;;;21.00;58.80;;;;;;4154060;28;20598;-41
2022/05/29 04:17:15;;;;;;;10.35;2.13;;;21.00;58.80;;;;;;4148849;28;20048;-38
2022/05/29 04:19:17;;;;;;;7.03;1.98;;;21.00;58.90;;;;;;4147754;28;20083;-38
2022/05/29 04:21:19;;;;;;;9.55;2.30;;;21.00;58.80;;;;;;4144233;28;20057;-38
2022/05/29 04:23:22;;;;;;;9.40;2.60;;;21.10;58.90;;;;;;4152478;28;20053;-40
2022/05/29 04:25:27;;;;;;;4.78;1.92;;;21.10;58.70;;;;;;4148814;28;20057;-39
2022/05/29 04:27:29;;;;;;;8.77;2.38;;;21.10;58.50;;;;;;4147647;28;20091;-42
2022/05/29 04:29:32;;;;;;;7.82;2.67;;;21.20;58.50;;;;;;4156244;28;20138;-38
2022/05/29 04:31:34;;;;;;;7.63;2.60;;;21.20;57.90;;;;;;4147755;28;21059;-39
2022/05/29 04:33:36;;;;;;;9.15;2.65;;;21.10;57.90;;;;;;4150555;28;20052;-39
2022/05/29 04:35:44;;;;;;;10.65;2.70;;;21.20;58.00;;;;;;4158764;28;20064;-38
2022/05/29 04:37:48;;;;;;;7.72;2.58;;;21.20;58.00;;;;;;4159177;28;20056;-38
2022/05/29 04:39:51;;;;;;;10.48;2.53;;;21.20;57.90;;;;;;4149907;28;20083;-39
2022/05/29 04:41:53;;;;;;;4.70;1.95;;;21.20;57.90;;;;;;4149624;28;20048;-42
2022/05/29 04:43:55;;;;;;;7.53;2.10;;;21.30;57.70;;;;;;4153327;28;20052;-38
2022/05/29 04:45:57;;;;;;;6.03;2.15;;;21.30;57.60;;;;;;4154147;28;21046;-39
2022/05/29 04:47:59;;;;;;;5.60;1.90;;;21.30;57.60;;;;;;4150586;28;20064;-38
2022/05/29 04:50:02;;;;;;;7.40;2.15;;;21.30;57.50;;;;;;4151115;28;20056;-43
2022/05/29 04:52:06;;;;;;;5.77;1.70;;;21.30;57.40;;;;;;4157186;28;20055;-44
2022/05/29 04:54:09;;;;;;;5.35;1.85;;;21.40;57.30;;;;;;4149496;28;21242;-38
2022/05/29 04:56:11;;;;;;;4.97;1.80;;;21.40;57.20;;;;;;4149711;28;20149;-39
2022/05/29 04:58:13;;;;;;;6.28;1.50;;;21.30;57.40;;;;;;4156879;28;20052;-40
2022/05/29 05:00:16;;;;;;;4.65;1.55;;;21.30;57.40;;;;;;4152164;28;20581;-42
2022/05/29 05:02:18;;;;;;;4.72;1.60;;;21.40;57.60;;;;;;4149143;28;20052;-45
2022/05/29 05:04:20;;;;;;;2.92;1.45;;;21.30;57.60;;;;;;4152033;28;20330;-38
2022/05/29 05:06:22;;;;;;;4.45;1.45;;;21.40;57.80;;;;;;4155835;28;20487;-39
2022/05/29 05:08:24;;;;;;;3.15;1.52;;;21.40;57.80;;;;;;4146183;28;20056;-40
2022/05/29 05:10:26;;;;;;;2.60;1.17;;;21.40;57.90;;;;;;4148783;28;20048;-39
2022/05/29 05:12:28;;;;;;;3.63;1.20;;;21.30;57.90;;;;;;4157327;28;20063;-41
2022/05/29 05:14:30;;;;;;;3.35;1.38;;;21.30;58.00;;;;;;4148891;28;20189;-39
2022/05/29 05:16:32;;;;;;;3.25;1.30;;;21.30;58.10;;;;;;4146409;28;20052;-38
2022/05/29 05:18:34;;;;;;;4.22;1.50;;;21.20;58.20;;;;;;4154635;28;20175;-38
2022/05/29 05:20:38;;;;;;;4.32;1.42;;;21.20;58.30;;;;;;4151408;28;20106;-40
2022/05/29 05:22:41;;;;;;;2.33;1.20;;;21.20;58.30;;;;;;4149876;28;20055;-40
2022/05/29 05:24:43;;;;;;;3.70;1.40;;;21.20;58.30;;;;;;4152556;28;20083;-38
2022/05/29 05:26:46;;;;;;;3.25;1.10;;;21.20;58.30;;;;;;4155628;28;20067;-42
2022/05/29 05:28:48;;;;;;;6.18;1.50;;;21.10;58.30;;;;;;4149352;28;20402;-42
2022/05/29 05:30:50;;;;;;;2.13;0.98;;;21.10;58.40;;;;;;4149867;28;20414;-43
2022/05/29 05:32:52;;;;;;;5.05;1.40;;;21.10;58.60;;;;;;4156234;28;20602;-42
2022/05/29 05:34:54;;;;;;;7.05;1.67;;;21.10;58.70;;;;;;4148639;28;20145;-40
2022/05/29 05:36:57;;;;;;;4.28;1.42;;;21.00;58.80;;;;;;4145992;28;20068;-41
2022/05/29 05:38:59;;;;;;;3.77;1.47;;;21.00;59.20;;;;;;4155488;28;20912;-39
2022/05/29 05:41:01;;;;;;;3.30;1.05;;;21.00;59.40;;;;;;4146012;28;20894;-40
2022/05/29 05:43:03;;;;;;;5.18;1.58;;;21.00;59.10;;;;;;4146001;28;20060;-43
2022/05/29 05:45:07;;;;;;;7.95;2.00;;;21.00;59.40;;;;;;4149746;28;20056;-46
2022/05/29 05:47:09;;;;;;;5.20;1.40;;;20.90;59.50;;;;;;4151331;28;20079;-42
2022/05/29 05:49:12;;;;;;;2.03;1.25;;;20.90;59.40;;;;;;4145490;28;20108;-39
2022/05/29 05:51:14;;;;;;;6.10;1.60;;;20.90;59.40;;;;;;4145006;28;20102;-38
2022/05/29 05:53:17;;;;;;;3.22;1.63;;;20.80;59.40;;;;;;4153542;28;20163;-41
2022/05/29 05:55:19;;;;;;;5.50;1.75;;;20.80;59.80;;;;;;4148799;28;20727;-39
2022/05/29 05:57:21;;;;;;;3.50;1.40;;;20.80;60.00;;;;;;4146654;28;20899;-40
2022/05/29 05:59:23;;;;;;;4.22;1.40;;;20.80;60.10;;;;;;4143837;28;20071;-40
2022/05/29 06:01:25;;;;;;;2.97;1.65;;;20.80;60.20;;;;;;4147659;28;20078;-40
2022/05/29 06:03:28;;;;;;;3.20;1.40;;;20.80;60.20;;;;;;4144532;28;20048;-38
2022/05/29 06:05:30;;;;;;;6.70;1.90;;;20.80;60.30;;;;;;4146482;28;20391;-38
2022/05/29 06:07:32;;;;;;;2.63;1.50;;;20.80;60.20;;;;;;4153951;28;20077;-38
2022/05/29 06:09:37;;;;;;;3.55;1.63;;;20.70;60.10;;;;;;4144914;28;20437;-40
2022/05/29 06:11:40;;;;;;;2.17;1.40;;;20.70;60.10;;;;;;4145462;28;20374;-40
2022/05/29 06:13:42;;;;;;;3.28;1.60;;;20.70;60.00;;;;;;4149696;28;20694;-37
2022/05/29 06:15:46;;;;;;;3.78;1.60;;;20.80;60.00;;;;;;4152128;28;22095;-39
2022/05/29 06:17:48;;;;;;;3.17;1.73;;;20.70;59.90;;;;;;4145860;28;20109;-41
2022/05/29 06:19:50;;;;;;;3.38;1.65;;;20.70;60.00;;;;;;4144393;28;20064;-40
2022/05/29 06:21:52;;;;;;;2.53;1.48;;;20.70;59.90;;;;;;4153537;28;20894;-39
2022/05/29 06:23:55;;;;;;;2.15;1.50;;;20.70;59.90;;;;;;4140581;28;20057;-38
2022/05/29 06:26:00;;;;;;;2.45;1.42;;;20.80;59.90;;;;;;4145321;28;20533;-41
2022/05/29 06:28:02;;;;;;;2.20;1.30;;;20.80;59.90;;;;;;4145075;28;20060;-38
2022/05/29 06:30:07;;;;;;;1.55;0.95;;;20.80;59.80;;;;;;4148795;28;20742;-38
2022/05/29 06:32:12;;;;;;;2.72;1.10;;;20.90;59.70;;;;;;4144789;28;20044;-39
2022/05/29 06:34:14;;;;;;;1.90;1.20;;;20.90;59.50;;;;;;4143800;28;20451;-43
2022/05/29 06:36:20;;;;;;;6.13;1.65;;;21.10;59.10;;;;;;4150148;28;20199;-40
2022/05/29 06:38:22;;;;;;;6.82;1.80;;;21.10;58.60;;;;;;4151041;28;20378;-39
2022/05/29 06:40:24;;;;;;;6.65;1.60;;;21.00;58.80;;;;;;4142597;28;20056;-41
2022/05/29 06:42:27;;;;;;;10.30;1.65;;;20.90;59.00;;;;;;4145046;28;20364;-39
2022/05/29 06:44:29;;;;;;;3.78;1.83;;;20.80;59.20;;;;;;4153378;28;20054;-43
2022/05/29 06:46:31;;;;;;;6.88;1.83;;;20.80;59.40;;;;;;4145062;28;20343;-45
2022/05/29 06:48:35;;;;;;;6.33;1.60;;;20.70;59.50;;;;;;4143179;28;20519;-40
2022/05/29 06:50:37;;;;;;;6.28;1.50;;;20.70;59.60;;;;;;4148499;28;20320;-40
2022/05/29 06:52:40;;;;;;;2.55;1.23;;;20.70;60.20;;;;;;4153240;28;20084;-39
2022/05/29 06:54:42;;;;;;;3.40;1.13;;;20.60;59.70;;;;;;4142582;28;20104;-45
2022/05/29 06:56:45;;;;;;;1.98;1.00;;;20.60;59.80;;;;;;4145218;28;20056;-40
2022/05/29 06:58:47;;;;;;;1.92;1.20;;;20.60;59.90;;;;;;4153505;28;20066;-39
2022/05/29 07:07:39;;;;;;;1.63;1.10;;;20.50;59.60;;;;;;4150398;28;20214;-38
2022/05/29 07:09:41;;;;;;;3.00;1.20;;;20.50;59.70;;;;;;4148085;28;20052;-39
2022/05/29 07:11:44;;;;;;;2.87;0.90;;;20.40;59.70;;;;;;4159608;28;20129;-46
2022/05/29 07:13:47;;;;;;;1.60;0.90;;;20.40;59.60;;;;;;4148098;28;20399;-40
2022/05/29 07:15:49;;;;;;;1.85;1.25;;;20.40;59.50;;;;;;4154347;28;20047;-40
2022/05/29 07:17:51;;;;;;;1.13;0.70;;;20.40;59.50;;;;;;4147478;28;20217;-42
2022/05/29 07:19:54;;;;;;;1.33;1.15;;;20.30;59.50;;;;;;4145507;28;20263;-43
2022/05/29 07:21:58;;;;;;;1.23;0.90;;;20.30;59.40;;;;;;4156461;28;20071;-41
2022/05/29 07:24:00;;;;;;;2.03;0.80;;;20.30;59.40;;;;;;4147320;28;20071;-40
2022/05/29 07:26:03;;;;;;;2.03;0.85;;;20.20;59.40;;;;;;4145473;28;20066;-42
2022/05/29 07:28:05;;;;;;;1.25;0.95;;;20.20;59.40;;;;;;4145497;28;20072;-39
2022/05/29 07:30:09;;;;;;;2.00;1.13;;;20.20;59.40;;;;;;4152192;28;20182;-42
2022/05/29 07:32:11;;;;;;;;;;;20.20;59.40;;;;;;4145301;28;20083;-41
2022/05/29 07:34:13;;;;;;;2.40;1.27;;;20.10;59.30;;;;;;4144412;28;20698;-44
2022/05/29 07:36:18;;;;;;;2.85;1.10;;;20.10;59.20;;;;;;4154560;28;20757;-46
2022/05/29 07:38:21;;;;;;;2.30;1.35;;;20.10;59.40;;;;;;4151578;28;20354;-42
2022/05/29 07:40:24;;;;;;;1.17;0.80;;;20.10;59.40;;;;;;4145156;28;20792;-40
2022/05/29 07:44:46;;;;;;;1.92;1.10;;;20.10;59.80;;;;;;4146218;28;19924;-40
2022/05/29 07:46:48;;;;;;;1.55;0.70;;;20.10;59.80;;;;;;4152246;28;20055;-44
2022/05/29 07:48:51;;;;;;;1.75;0.70;;;20.10;59.80;;;;;;4152963;28;20072;-42
2022/05/29 07:50:53;;;;;;;1.48;0.80;;;20.10;59.90;;;;;;4148347;28;20131;-45
2022/05/29 07:52:56;;;;;;;1.88;1.00;;;20.00;60.00;;;;;;4145477;28;20056;-45
2022/05/29 07:54:58;;;;;;;2.38;1.00;;;20.00;60.10;;;;;;4155804;28;20052;-44
2022/05/29 07:57:00;;;;;;;0.88;0.80;;;20.00;60.00;;;;;;4143039;28;20072;-45
2022/05/29 07:59:02;;;;;;;2.67;1.00;;;20.00;60.00;;;;;;4146829;28;20455;-46
2022/05/29 08:01:05;;;;;;;2.55;1.10;;;20.00;60.00;;;;;;4151439;28;20068;-43
2022/05/29 08:03:07;;;;;;;1.50;0.90;;;20.00;60.10;;;;;;4166551;28;20060;-43
2022/05/29 08:05:13;;;;;;;0.68;0.57;;;20.00;60.10;;;;;;4145041;28;20060;-38
2022/05/29 08:07:19;;;;;;;2.15;0.90;;;20.00;60.00;;;;;;4144529;28;20048;-42
2022/05/29 08:09:21;;;;;;;2.75;0.55;;;20.00;60.00;;;;;;4149081;28;20109;-43
2022/05/29 08:11:30;;;;;;;2.58;0.50;;;19.90;60.00;;;;;;4169811;28;20807;-47
2022/05/29 08:13:35;;;;;;;3.88;0.75;;;20.00;59.80;;;;;;4148402;28;21775;-42
2022/05/29 08:15:38;;;;;;;1.27;0.98;;;20.00;60.00;;;;;;4145353;28;20130;-42
2022/05/29 08:17:41;;;;;;;0.95;0.82;;;20.00;60.20;;;;;;4162022;28;20059;-43
2022/05/29 08:19:44;;;;;;;3.30;0.65;;;19.90;60.20;;;;;;4148535;28;20283;-50
2022/05/29 08:21:46;;;;;;;3.97;1.27;;;19.90;60.20;;;;;;4146356;28;20084;-44
2022/05/29 08:30:54;;;;;;;1.83;0.80;;;19.80;57.20;;;;;;4148307;28;20064;-45
2022/05/29 08:32:56;;;;;;;3.45;0.80;;;19.70;56.90;;;;;;4151413;28;20090;-40
2022/05/29 08:35:00;;;;;;;1.42;0.70;;;19.70;56.80;;;;;;4147693;28;20355;-43
2022/05/29 08:37:02;;;;;;;3.58;0.75;;;19.70;56.80;;;;;;4143692;28;20607;-45
2022/05/29 08:39:04;;;;;;;1.05;0.80;;;19.60;56.50;;;;;;4150886;28;20429;-42
2022/05/29 08:41:19;;;;;;;0.90;0.82;;;19.60;56.70;;;;;;4161840;28;21884;-40
2022/05/29 08:43:38;;;;;;;1.63;0.93;;;19.50;56.50;;;;;;4150324;28;22021;-43
2022/05/29 08:45:41;;;;;;;1.02;0.52;;;19.50;56.50;;;;;;4153569;28;20052;-41
2022/05/29 08:47:46;;;;;;;0.90;0.85;;;19.40;56.60;;;;;;4145627;28;20202;-45
2022/05/29 08:49:49;;;;;;;1.40;0.70;;;19.40;56.40;;;;;;4156680;28;20082;-47
2022/05/29 08:51:57;;;;;;;0.90;0.70;;;19.40;56.50;;;;;;4144602;28;20101;-41
2022/05/29 08:54:38;;;;;;;1.23;0.95;;;19.30;56.50;;;;;;4149908;28;20046;-45
2022/05/29 08:57:27;;;;;;;1.33;0.70;;;19.30;56.90;;;;;;4152276;28;20075;-41
2022/05/29 08:59:56;;;;;;;1.33;0.95;;;19.20;56.80;;;;;;4147210;28;20055;-41
2022/05/29 09:02:52;;;;;;;1.08;0.95;;;19.20;56.50;;;;;;4144296;28;20142;-45
2022/05/29 09:05:06;;;;;;;0.80;0.80;;;19.20;57.20;;;;;;4151163;28;20113;-44
2022/05/29 09:07:10;;;;;;;1.10;0.95;;;19.10;57.00;;;;;;4152285;28;20530;-46
2022/05/29 09:09:31;;;;;;;0.65;0.65;;;19.00;56.90;;;;;;4148123;28;20060;-41
2022/05/29 09:11:39;;;;;;;1.27;0.80;;;19.00;56.80;;;;;;4156899;28;20049;-46
2022/05/29 09:13:53;;;;;;;0.60;0.60;;;19.00;57.10;;;;;;4168372;28;20608;-45
2022/05/29 09:16:01;;;;;;;1.00;0.85;;;18.90;57.20;;;;;;4155320;28;20131;-42
2022/05/29 09:18:26;;;;;;;1.17;0.70;;;18.90;57.50;;;;;;4147448;28;20079;-47
2022/05/29 09:20:31;;;;;;;1.00;0.90;;;18.90;57.50;;;;;;4145119;28;20080;-41
2022/05/29 09:22:38;;;;;;;0.60;0.60;;;18.80;58.10;;;;;;4150586;28;20476;-41
2022/05/29 09:24:55;;;;;;;1.08;0.80;;;18.80;57.50;;;;;;4152089;28;20473;-42
2022/05/29 09:26:57;;;;;;;1.08;0.70;;;18.80;58.00;;;;;;4152436;28;20457;-43
2022/05/29 09:28:59;;;;;;;0.63;0.60;;;18.70;57.80;;;;;;4147601;28;20864;-49
2022/05/29 09:31:25;;;;;;;0.65;0.60;;;18.70;57.80;;;;;;4145088;28;20106;-40
2022/05/29 09:33:29;;;;;;;0.60;0.60;;;18.70;58.00;;;;;;4149843;28;21544;-41
2022/05/29 09:35:53;;;;;;;0.50;0.50;;;18.60;58.00;;;;;;4143076;28;20153;-40
2022/05/29 09:37:59;;;;;;;1.08;0.65;;;18.60;57.60;;;;;;4153347;28;20056;-44
2022/05/29 09:40:02;;;;;;;0.80;0.60;;;18.60;58.20;;;;;;4145841;28;20679;-41
2022/05/29 09:42:13;;;;;;;0.95;0.80;;;18.60;58.20;;;;;;4144269;28;20048;-41
2022/05/29 09:44:21;;;;;;;0.73;0.73;;;18.60;58.30;;;;;;4145031;28;20079;-48
2022/05/29 09:46:23;;;;;;;1.08;0.70;;;18.50;57.70;;;;;;4143896;28;20143;-42
2022/05/29 09:50:59;;;;;;;;;;;18.40;58.30;;;;;;4145070;28;20424;-43
2022/05/29 09:53:03;;;;;;;0.70;0.60;;;18.40;58.70;;;;;;4143654;28;19935;-40
2022/05/29 09:55:24;;;;;;;1.17;0.80;;;18.40;58.10;;;;;;4151333;28;20611;-44
2022/05/29 09:57:31;;;;;;;1.00;0.82;;;18.40;58.30;;;;;;4145932;28;20590;-42
2022/05/29 09:59:40;;;;;;;0.70;0.70;;;18.30;58.80;;;;;;4147036;28;20091;-42
2022/05/29 10:01:45;;;;;;;0.80;0.80;;;18.40;58.20;;;;;;4145537;28;20081;-40
2022/05/29 10:03:56;;;;;;;0.40;0.40;;;18.30;58.20;;;;;;4153881;28;20839;-45
2022/05/29 10:06:16;;;;;;;1.20;0.70;;;18.30;58.10;;;;;;4152236;28;21252;-43
2022/05/29 10:08:28;;;;;;;0.70;0.70;;;18.30;58.30;;;;;;4149614;28;20048;-40
2022/05/29 10:10:33;;;;;;;0.88;0.73;;;18.30;58.10;;;;;;4151759;28;20118;-41
2022/05/29 10:12:40;;;;;;;1.45;0.85;;;18.20;58.40;;;;;;4150816;28;20138;-41
2022/05/29 10:14:44;;;;;;;1.17;0.60;;;18.20;58.80;;;;;;4144182;28;21237;-43
2022/05/29 10:16:49;;;;;;;0.70;0.70;;;18.20;58.40;;;;;;4145164;28;20626;-40
2022/05/29 10:18:51;;;;;;;0.70;0.70;;;18.20;58.10;;;;;;4144564;28;20074;-40
2022/05/29 10:20:55;;;;;;;0.70;0.70;;;18.20;58.80;;;;;;4150700;28;20056;-42
2022/05/29 10:23:06;;;;;;;2.15;0.95;;;18.10;58.90;;;;;;4143256;28;22092;-46
2022/05/29 10:25:24;;;;;;;1.33;0.93;;;18.10;58.90;;;;;;4142653;28;20048;-46
2022/05/29 10:27:35;;;;;;;0.80;0.80;;;18.10;58.80;;;;;;4148455;28;20058;-46
2022/05/29 10:29:38;;;;;;;1.30;1.10;;;18.10;58.70;;;;;;4147619;28;20491;-45
2022/05/29 10:31:41;;;;;;;1.20;1.00;;;18.00;58.70;;;;;;4138782;28;20569;-45
2022/05/29 10:34:10;;;;;;;1.45;0.90;;;18.00;58.70;;;;;;4143450;28;20142;-41
2022/05/29 10:36:17;;;;;;;1.20;0.90;;;18.00;58.70;;;;;;4144373;28;21617;-44
2022/05/29 10:38:19;;;;;;;1.00;0.80;;;18.00;58.90;;;;;;4142201;28;20589;-44
2022/05/29 10:40:26;;;;;;;1.42;1.10;;;18.00;58.70;;;;;;4142330;28;20567;-41
2022/05/29 10:42:46;;;;;;;1.27;1.10;;;17.90;58.80;;;;;;4143874;28;20059;-40
2022/05/29 10:44:49;;;;;;;1.73;1.17;;;17.90;59.40;;;;;;4145135;28;20526;-40
2022/05/29 10:47:09;;;;;;;1.60;1.10;;;17.90;58.90;;;;;;4149419;28;20052;-42
2022/05/29 10:49:25;;;;;;;2.55;1.20;;;17.90;58.60;;;;;;4143986;28;20143;-43
2022/05/29 10:51:36;;;;;;;1.95;1.17;;;17.80;58.50;;;;;;4144828;28;20084;-39
2022/05/29 10:54:09;;;;;;;1.48;1.10;;;17.80;58.30;;;;;;4144631;28;20649;-44
2022/05/29 10:56:19;;;;;;;1.63;1.15;;;17.80;58.50;;;;;;4151653;28;20059;-42
2022/05/29 10:58:48;;;;;;;1.25;1.13;;;17.80;58.60;;;;;;4151165;28;20832;-42
2022/05/29 11:03:17;;;;;;;1.35;1.10;;;17.80;58.60;;;;;;4144915;28;20063;-41
2022/05/29 11:04:00;;;;;;;1.60;1.30;;;17.70;59.10;;;;;;4140023;28;20044;-41
2022/05/29 11:06:34;;;;;;;1.92;1.50;;;17.70;58.60;;;;;;4147936;28;20139;-42
2022/05/29 11:09:00;;;;;;;2.63;1.52;;;17.70;59.10;;;;;;4142373;28;20117;-44
2022/05/29 11:11:26;;;;;;;2.22;1.33;;;17.70;58.50;;;;;;4152189;28;20048;-47
2022/05/29 11:14:07;;;;;;;2.10;1.48;;;17.70;58.30;;;;;;4143040;28;20430;-43
2022/05/29 11:16:29;;;;;;;2.00;1.45;;;17.60;58.40;;;;;;4144270;28;20111;-39
2022/05/29 11:18:31;;;;;;;2.08;1.30;;;17.60;58.40;;;;;;4144357;28;20508;-45
2022/05/29 11:20:52;;;;;;;1.50;1.10;;;17.60;58.60;;;;;;4142311;28;20150;-42
2022/05/29 11:23:28;;;;;;;2.25;1.42;;;17.50;58.40;;;;;;4141908;28;20614;-50
2022/05/29 11:25:36;;;;;;;2.00;1.40;;;17.50;58.90;;;;;;4131827;28;20135;-40
2022/05/29 11:28:10;;;;;;;2.65;1.42;;;17.50;58.40;;;;;;4148477;28;20125;-40
2022/05/29 11:30:21;;;;;;;2.10;1.70;;;17.50;58.30;;;;;;4143678;28;20254;-43
2022/05/29 11:33:07;;;;;;;2.53;1.67;;;17.50;58.70;;;;;;4159406;28;20644;-40
2022/05/29 11:35:29;;;;;;;2.05;1.50;;;17.50;58.60;;;;;;4145617;28;20950;-43
2022/05/29 11:37:58;;;;;;;1.77;1.42;;;17.40;58.50;;;;;;4150412;28;20079;-43
2022/05/29 11:40:08;;;;;;;1.50;1.27;;;17.40;59.30;;;;;;4143309;28;20851;-43